createdAt,value
2019-02-22T00:03:24.476Z,9.83
2019-02-22T00:08:27.173Z,9.87
2019-02-22T00:13:29.803Z,9.90
2019-02-22T00:18:32.451Z,9.93
2019-02-22T00:23:35.072Z,9.83
2019-02-22T00:28:37.734Z,9.89
2019-02-22T00:33:40.374Z,9.84
2019-02-22T00:38:43.061Z,9.88
2019-02-22T00:43:45.756Z,9.89
2019-02-22T00:48:48.411Z,9.91
2019-02-22T00:53:51.078Z,9.91
2019-02-22T00:58:53.727Z,9.88
2019-02-22T01:03:56.349Z,9.89
2019-02-22T01:08:59.006Z,9.83
2019-02-22T01:14:01.680Z,9.84
2019-02-22T01:19:04.356Z,9.77
2019-02-22T01:24:07.107Z,9.81
2019-02-22T01:29:09.722Z,9.83
2019-02-22T01:34:12.366Z,9.80
2019-02-22T01:39:14.985Z,9.73
2019-02-22T01:44:18.322Z,9.77
2019-02-22T01:49:21.006Z,9.76
2019-02-22T01:54:23.656Z,9.78
2019-02-22T01:59:26.304Z,9.78
2019-02-22T02:04:28.950Z,9.77
2019-02-22T02:09:31.665Z,9.76
2019-02-22T02:14:34.287Z,9.74
2019-02-22T02:19:36.947Z,9.69
2019-02-22T02:24:39.580Z,9.72
2019-02-22T02:29:42.271Z,9.78
2019-02-22T02:34:44.930Z,9.79
2019-02-22T02:39:47.647Z,9.80
2019-02-22T02:44:50.334Z,9.73
2019-02-22T02:49:53.045Z,9.74
2019-02-22T02:54:55.736Z,9.71
2019-02-22T02:59:58.410Z,9.73
2019-02-22T03:05:01.123Z,9.75
2019-02-22T03:10:04.187Z,9.77
2019-02-22T03:15:07.938Z,9.69
2019-02-22T03:20:10.860Z,9.71
2019-02-22T03:25:13.493Z,9.67
2019-02-22T03:30:16.295Z,9.66
2019-02-22T03:35:19.029Z,9.63
2019-02-22T03:40:21.663Z,9.62
2019-02-22T03:45:24.332Z,9.65
2019-02-22T03:50:27.028Z,9.66
2019-02-22T03:55:30.660Z,9.65
2019-02-22T04:00:33.366Z,9.62
2019-02-22T04:05:36.058Z,9.67
2019-02-22T04:10:38.703Z,9.69
2019-02-22T04:15:41.372Z,9.69
2019-02-22T04:20:44.076Z,9.65
2019-02-22T04:25:47.467Z,9.69
2019-02-22T04:30:50.895Z,9.71
2019-02-22T04:35:53.587Z,9.73
2019-02-22T04:40:56.245Z,9.77
2019-02-22T04:45:58.886Z,9.78
2019-02-22T04:51:01.529Z,9.75
2019-02-22T04:56:04.146Z,9.70
2019-02-22T05:01:06.800Z,9.66
2019-02-22T05:06:09.434Z,9.65
2019-02-22T05:11:12.074Z,9.59
2019-02-22T05:16:14.720Z,9.57
2019-02-22T05:21:17.371Z,9.60
2019-02-22T05:26:20.093Z,9.49
2019-02-22T05:31:22.722Z,9.54
2019-02-22T05:36:25.367Z,9.57
2019-02-22T05:41:27.995Z,9.59
2019-02-22T05:46:30.642Z,9.61
2019-02-22T05:51:33.280Z,9.65
2019-02-22T05:56:36.633Z,9.64
2019-02-22T06:01:39.332Z,9.62
2019-02-22T06:06:41.980Z,9.63
2019-02-22T06:11:44.620Z,9.65
2019-02-22T06:16:47.259Z,9.60
2019-02-22T06:21:49.958Z,9.58
2019-02-22T06:26:52.687Z,9.57
2019-02-22T06:31:55.315Z,9.59
2019-02-22T06:37:01.665Z,9.58
2019-02-22T06:42:02.364Z,9.59
2019-02-22T06:47:05.009Z,9.60
2019-02-22T06:52:07.632Z,9.61
2019-02-22T06:57:10.271Z,9.63
2019-02-22T07:02:12.904Z,9.65
2019-02-22T07:07:15.562Z,9.68
2019-02-22T07:12:34.658Z,9.67
2019-02-22T07:17:37.303Z,9.66
2019-02-22T07:22:39.924Z,9.68
2019-02-22T07:27:42.548Z,9.64
2019-02-22T07:32:45.954Z,9.68
2019-02-22T07:37:48.662Z,9.63
2019-02-22T07:42:51.304Z,9.68
2019-02-22T07:47:53.920Z,9.75
2019-02-22T07:52:56.563Z,9.78
2019-02-22T07:57:59.270Z,9.79
2019-02-22T08:03:02.719Z,9.81
2019-02-22T08:08:05.418Z,9.81
2019-02-22T08:13:19.240Z,9.84
2019-02-22T08:18:12.447Z,9.85
2019-02-22T08:23:15.073Z,9.76
2019-02-22T08:28:17.714Z,9.80
2019-02-22T08:33:20.346Z,9.82
2019-02-22T08:38:22.987Z,9.94
2019-02-22T08:43:31.474Z,10.04
2019-02-22T08:48:30.027Z,10.16
2019-02-22T08:53:32.718Z,10.26
2019-02-22T08:58:35.365Z,10.11
2019-02-22T09:03:49.396Z,10.04
2019-02-22T09:08:42.411Z,9.95
2019-02-22T09:13:45.044Z,10.08
2019-02-22T09:18:47.690Z,10.19
2019-02-22T09:23:50.323Z,10.34
2019-02-22T09:28:55.492Z,10.42
2019-02-22T09:33:57.377Z,10.56
2019-02-22T09:39:00.016Z,10.64
2019-02-22T09:44:02.674Z,10.77
2019-02-22T09:49:05.400Z,10.56
2019-02-22T09:54:08.030Z,10.62
2019-02-22T09:59:10.673Z,10.61
2019-02-22T10:04:14.810Z,10.50
2019-02-22T10:09:17.459Z,10.55
2019-02-22T10:14:20.083Z,10.50
2019-02-22T10:19:22.711Z,10.59
2019-02-22T10:24:25.377Z,10.57
2019-02-22T10:29:28.032Z,10.60
2019-02-22T10:34:30.672Z,10.68
2019-02-22T10:39:33.378Z,10.64
2019-02-22T10:44:36.073Z,10.66
2019-02-22T10:49:38.720Z,10.68
2019-02-22T10:54:41.440Z,10.69
2019-02-22T10:59:44.081Z,10.74
2019-02-22T11:04:46.725Z,10.76
2019-02-22T11:09:49.351Z,10.80
2019-02-22T11:14:51.980Z,10.83
2019-02-22T11:19:54.601Z,10.83
2019-02-22T11:24:57.285Z,10.72
2019-02-22T11:29:59.917Z,10.69
2019-02-22T11:35:02.582Z,10.56
2019-02-22T11:40:06.604Z,10.54
2019-02-22T11:45:09.827Z,10.57
2019-02-22T11:50:12.928Z,10.53
2019-02-22T11:55:15.632Z,10.55
2019-02-22T12:00:22.630Z,10.67
2019-02-22T12:05:25.300Z,10.59
2019-02-22T12:10:27.941Z,10.65
2019-02-22T12:15:31.509Z,10.64
2019-02-22T12:20:34.301Z,10.72
2019-02-22T12:25:36.956Z,10.63
2019-02-22T12:30:39.626Z,10.56
2019-02-22T12:35:42.259Z,10.45
2019-02-22T12:40:44.914Z,10.52
2019-02-22T12:45:47.531Z,10.47
2019-02-22T12:50:50.241Z,10.49
2019-02-22T12:55:52.863Z,10.44
2019-02-22T13:00:55.529Z,10.49
2019-02-22T13:05:58.163Z,10.47
2019-02-22T13:11:00.802Z,10.51
2019-02-22T13:16:03.424Z,10.67
2019-02-22T13:21:06.055Z,10.59
2019-02-22T13:26:08.688Z,10.57
2019-02-22T13:31:11.319Z,10.60
2019-02-22T13:36:13.950Z,10.68
2019-02-22T13:41:16.598Z,10.78
2019-02-22T13:46:21.063Z,10.82
2019-02-22T13:51:23.780Z,10.97
2019-02-22T13:56:29.650Z,11.05
2019-02-22T14:01:30.786Z,11.11
2019-02-22T14:06:33.486Z,11.18
2019-02-22T14:11:36.095Z,11.25
2019-02-22T14:16:38.725Z,11.23
2019-02-22T14:21:41.384Z,11.14
2019-02-22T14:26:44.090Z,11.19
2019-02-22T14:31:47.038Z,11.11
2019-02-22T14:36:49.885Z,11.11
2019-02-22T14:41:52.560Z,11.14
2019-02-22T14:46:55.199Z,11.19
2019-02-22T14:51:57.824Z,11.12
2019-02-22T14:57:00.452Z,11.14
2019-02-22T15:02:03.086Z,11.10
2019-02-22T15:07:05.708Z,11.07
2019-02-22T15:12:08.346Z,11.05
2019-02-22T15:17:21.409Z,11.01
2019-02-22T15:22:24.037Z,10.93
2019-02-22T15:27:26.682Z,10.74
2019-02-22T15:32:29.348Z,10.67
2019-02-22T15:37:31.967Z,10.69
2019-02-22T15:42:34.684Z,10.56
2019-02-22T15:47:37.377Z,10.54
2019-02-22T15:52:40.018Z,10.51
2019-02-22T15:57:42.663Z,10.49
2019-02-22T16:02:45.332Z,10.51
2019-02-22T16:07:48.122Z,10.41
2019-02-22T16:12:50.791Z,10.38
2019-02-22T16:17:53.456Z,10.31
2019-02-22T16:22:56.250Z,10.30
2019-02-22T16:27:58.962Z,10.24
2019-02-22T16:33:01.610Z,10.19
2019-02-22T16:38:04.239Z,10.17
2019-02-22T16:43:06.866Z,10.15
2019-02-22T16:48:09.588Z,10.05
2019-02-22T16:53:12.260Z,10.04
2019-02-22T16:58:14.964Z,9.96
2019-02-22T17:03:17.580Z,10.02
2019-02-22T17:08:20.195Z,9.99
2019-02-22T17:13:22.820Z,9.94
2019-02-22T17:18:25.443Z,9.86
2019-02-22T17:23:28.139Z,9.88
2019-02-22T17:28:31.634Z,9.76
2019-02-22T17:33:34.291Z,9.62
2019-02-22T17:38:36.934Z,9.55
2019-02-22T17:43:39.578Z,9.48
2019-02-22T17:48:42.303Z,9.52
2019-02-22T17:53:44.933Z,9.47
2019-02-22T18:00:31.978Z,9.45
2019-02-22T18:05:34.752Z,9.31
2019-02-22T18:10:37.483Z,9.30
2019-02-22T18:15:40.262Z,9.32
2019-02-22T18:20:43.009Z,9.22
2019-02-22T18:31:49.949Z,22.33
2019-02-22T18:39:36.714Z,24.06
2019-02-22T18:44:40.171Z,24.28
2019-02-22T18:53:47.238Z,20.11
2019-02-22T18:58:50.656Z,13.38
2019-02-22T19:03:54.067Z,11.43
2019-02-22T19:08:57.485Z,9.85
2019-02-22T19:14:00.960Z,9.27
2019-02-22T19:19:04.409Z,8.62
2019-02-22T19:24:07.900Z,8.43
2019-02-22T19:29:11.389Z,8.23
2019-02-22T19:34:14.815Z,8.06
2019-02-22T19:39:18.233Z,8.12
2019-02-22T19:44:21.652Z,8.00
2019-02-22T19:49:25.074Z,7.72
2019-02-22T19:54:28.506Z,7.83
2019-02-22T19:59:31.936Z,7.78
2019-02-22T20:04:35.352Z,7.68
2019-02-22T20:09:38.812Z,7.63
2019-02-22T20:14:42.243Z,7.56
2019-02-22T20:19:45.671Z,7.43
2019-02-22T20:24:49.100Z,7.39
2019-02-22T20:29:52.528Z,7.32
2019-02-22T20:34:55.971Z,7.32
2019-02-22T20:39:59.410Z,7.38
2019-02-22T20:45:02.885Z,7.45
2019-02-22T20:50:11.572Z,7.37
2019-02-22T20:55:14.987Z,7.33
2019-02-22T21:00:23.431Z,7.22
2019-02-22T21:05:26.848Z,7.26
2019-02-22T21:10:30.301Z,7.14
2019-02-22T21:15:33.725Z,6.95
2019-02-22T21:20:37.161Z,6.65
2019-02-22T21:25:40.591Z,6.48
2019-02-22T21:30:44.062Z,6.53
2019-02-22T21:35:47.497Z,6.62
2019-02-22T21:40:50.913Z,6.40
2019-02-22T21:45:54.348Z,6.37
2019-02-22T21:50:57.782Z,6.28
2019-02-22T21:56:01.254Z,6.38
2019-02-22T22:01:32.222Z,6.33
2019-02-22T22:06:35.636Z,6.29
2019-02-22T22:11:39.056Z,6.11
2019-02-22T22:16:42.490Z,5.69
2019-02-22T22:21:45.908Z,5.71
2019-02-22T22:26:49.341Z,5.56
2019-02-22T22:31:52.754Z,5.46
2019-02-22T22:36:56.196Z,5.48
2019-02-22T22:41:59.642Z,5.47
2019-02-22T22:47:03.107Z,5.36
2019-02-22T22:52:06.532Z,5.39
2019-02-22T22:57:09.969Z,5.28
2019-02-22T23:02:13.574Z,5.36
2019-02-22T23:07:17.161Z,5.30
2019-02-22T23:12:20.592Z,5.35
2019-02-22T23:17:24.022Z,5.35
2019-02-22T23:22:27.460Z,5.36
2019-02-22T23:27:30.892Z,5.48
2019-02-22T23:32:34.320Z,5.38
2019-02-22T23:37:37.858Z,5.31
2019-02-22T23:42:42.124Z,5.26
2019-02-22T23:47:45.582Z,5.12
2019-02-22T23:52:49.011Z,5.02
2019-02-22T23:57:52.476Z,5.04
